createdAt,value
2023-04-18T00:01:03.743Z,102856.44
2023-04-18T00:04:04.953Z,102868.63
2023-04-18T00:07:05.751Z,102866.09
2023-04-18T00:10:06.796Z,102866.69
2023-04-18T00:13:07.737Z,102863.63
2023-04-18T00:16:08.843Z,102874.03
2023-04-18T00:19:10.735Z,102864.06
2023-04-18T00:22:11.857Z,102862.06
2023-04-18T00:25:12.734Z,102870.06
2023-04-18T00:28:13.776Z,102868.19
2023-04-18T00:31:15.845Z,102874.31
2023-04-18T00:34:17.793Z,102872.19
2023-04-18T00:37:20.760Z,102864.88
2023-04-18T00:40:21.820Z,102864.97
2023-04-18T00:43:22.730Z,102864.13
2023-04-18T00:46:23.812Z,102865.25
2023-04-18T00:49:24.754Z,102875.81
2023-04-18T00:52:25.788Z,102872.63
2023-04-18T00:55:26.728Z,102873.13
2023-04-18T00:58:27.769Z,102876.13
2023-04-18T01:01:28.764Z,102876.41
2023-04-18T01:04:30.833Z,102878.31
2023-04-18T01:07:31.744Z,102885.53
2023-04-18T01:10:32.773Z,102878.69
2023-04-18T01:13:33.730Z,102879.72
2023-04-18T01:16:34.769Z,102878.09
2023-04-18T01:19:35.715Z,102888.03
2023-04-18T01:22:36.922Z,102889.59
2023-04-18T01:25:37.728Z,102882.06
2023-04-18T01:28:38.807Z,102885.16
2023-04-18T01:31:39.765Z,102876.94
2023-04-18T01:34:42.765Z,102882.06
2023-04-18T01:37:44.719Z,102878.63
2023-04-18T01:40:45.816Z,102876.47
2023-04-18T01:43:46.746Z,102873.28
2023-04-18T01:46:47.841Z,102876.47
2023-04-18T01:49:52.708Z,102876.34
2023-04-18T01:52:55.792Z,102874.31
2023-04-18T01:55:56.706Z,102887.19
2023-04-18T01:58:57.808Z,102877.56
2023-04-18T02:01:58.776Z,102871.97
2023-04-18T02:04:59.756Z,102879.41
2023-04-18T02:08:00.733Z,102875.50
2023-04-18T02:11:01.747Z,102871.78
2023-04-18T02:14:02.766Z,102873.41
2023-04-18T02:17:03.776Z,102881.03
2023-04-18T02:20:04.767Z,102872.09
2023-04-18T02:23:05.827Z,102867.56
2023-04-18T02:26:06.755Z,102865.59
2023-04-18T02:29:07.772Z,102866.88
2023-04-18T02:32:08.812Z,102868.13
2023-04-18T02:35:11.769Z,102873.41
2023-04-18T02:38:15.745Z,102862.44
2023-04-18T02:41:21.787Z,102855.72
2023-04-18T02:44:23.736Z,102854.56
2023-04-18T02:47:24.780Z,102852.09
2023-04-18T02:50:25.721Z,102846.53
2023-04-18T02:53:26.778Z,102858.66
2023-04-18T02:56:30.695Z,102845.75
2023-04-18T02:59:46.775Z,102849.56
2023-04-18T03:02:47.811Z,102855.47
2023-04-18T03:05:59.785Z,102855.38
2023-04-18T03:09:01.725Z,102851.63
2023-04-18T03:12:06.778Z,102862.59
2023-04-18T03:15:08.716Z,102860.47
2023-04-18T03:18:09.780Z,102865.28
2023-04-18T03:21:10.683Z,102865.50
2023-04-18T03:24:12.322Z,102860.22
2023-04-18T03:27:16.716Z,102862.16
2023-04-18T03:30:17.804Z,102857.03
2023-04-18T03:33:23.700Z,102855.13
2023-04-18T03:36:35.756Z,102862.91
2023-04-18T03:39:38.741Z,102864.31
2023-04-18T03:42:39.748Z,102857.28
2023-04-18T03:45:40.768Z,102867.38
2023-04-18T03:48:43.752Z,102865.25
2023-04-18T03:51:46.728Z,102871.97
2023-04-18T03:54:47.750Z,102868.47
2023-04-18T03:57:52.759Z,102868.19
2023-04-18T04:00:56.758Z,102869.31
2023-04-18T04:03:57.805Z,102866.88
2023-04-18T04:06:58.723Z,102876.66
2023-04-18T04:09:59.755Z,102871.97
2023-04-18T04:13:00.768Z,102872.78
2023-04-18T04:16:04.830Z,102877.13
2023-04-18T04:19:05.746Z,102875.03
2023-04-18T04:22:13.718Z,102870.06
2023-04-18T04:25:14.808Z,102881.50
2023-04-18T04:28:15.728Z,102879.19
2023-04-18T04:31:22.810Z,102881.03
2023-04-18T04:34:24.688Z,102881.84
2023-04-18T04:37:27.771Z,102878.78
2023-04-18T04:40:38.682Z,102872.31
2023-04-18T04:43:40.767Z,102876.88
2023-04-18T04:46:46.702Z,102883.97
2023-04-18T04:49:51.732Z,102881.75
2023-04-18T04:52:53.744Z,102885.72
2023-04-18T04:55:54.765Z,102873.84
2023-04-18T04:58:55.692Z,102879.09
2023-04-18T05:02:01.815Z,102894.56
2023-04-18T05:05:03.709Z,102889.53
2023-04-18T05:08:04.910Z,102894.16
2023-04-18T05:11:05.688Z,102889.66
2023-04-18T05:14:06.747Z,102890.56
2023-04-18T05:17:08.787Z,102894.06
2023-04-18T05:20:09.766Z,102899.47
2023-04-18T05:23:10.700Z,102878.53
2023-04-18T05:26:12.056Z,102890.56
2023-04-18T05:29:12.706Z,102889.97
2023-04-18T05:32:13.757Z,102895.00
2023-04-18T05:35:14.707Z,102882.94
2023-04-18T05:38:15.726Z,102891.44
2023-04-18T05:41:16.723Z,102896.09
2023-04-18T05:44:18.098Z,102883.78
2023-04-18T05:47:18.722Z,102886.66
2023-04-18T05:50:19.751Z,102885.72
2023-04-18T05:53:20.697Z,102882.56
2023-04-18T05:56:21.728Z,102879.84
2023-04-18T05:59:22.680Z,102884.25
2023-04-18T06:02:23.875Z,102875.03
2023-04-18T06:05:24.896Z,102892.06
2023-04-18T06:08:25.773Z,102888.34
2023-04-18T06:11:27.686Z,102893.00
2023-04-18T06:14:28.787Z,102901.53
2023-04-18T06:17:29.748Z,102888.78
2023-04-18T06:20:30.775Z,102891.81
2023-04-18T06:23:31.674Z,102894.38
2023-04-18T06:26:32.868Z,102900.06
2023-04-18T06:29:37.944Z,102895.44
2023-04-18T06:32:38.818Z,102894.94
2023-04-18T06:35:39.706Z,102905.91
2023-04-18T06:38:40.703Z,102910.28
2023-04-18T06:41:41.692Z,102898.00
2023-04-18T06:44:53.715Z,102902.69
2023-04-18T06:47:54.747Z,102906.81
2023-04-18T06:50:55.761Z,102906.34
2023-04-18T06:53:59.689Z,102907.25
2023-04-18T06:57:00.730Z,102903.28
2023-04-18T07:00:01.721Z,102904.75
2023-04-18T07:03:03.011Z,102918.94
2023-04-18T07:06:03.702Z,102911.75
2023-04-18T07:09:07.750Z,102915.00
2023-04-18T07:12:08.695Z,102918.03
2023-04-18T07:15:10.717Z,102912.47
2023-04-18T07:18:12.473Z,102915.56
2023-04-18T07:21:16.717Z,102909.13
2023-04-18T07:24:17.668Z,102912.22
2023-04-18T07:27:18.974Z,102913.28
2023-04-18T07:30:19.659Z,102917.03
2023-04-18T07:33:20.738Z,102912.56
2023-04-18T07:36:21.680Z,102911.75
2023-04-18T07:39:22.732Z,102909.59
2023-04-18T07:42:23.730Z,102914.03
2023-04-18T07:45:24.739Z,102900.19
2023-04-18T07:48:25.710Z,102907.19
2023-04-18T07:51:26.733Z,102905.31
2023-04-18T07:54:27.722Z,102905.16
2023-04-18T07:57:28.733Z,102900.28
2023-04-18T08:00:32.824Z,102903.88
2023-04-18T08:03:33.814Z,102903.44
2023-04-18T08:06:27.851Z,102899.63
2023-04-18T08:09:23.715Z,102903.41
2023-04-18T08:12:24.675Z,102900.78
2023-04-18T08:15:25.694Z,102899.00
2023-04-18T08:18:26.803Z,102899.19
2023-04-18T08:21:27.722Z,102897.84
2023-04-18T08:24:28.689Z,102907.84
2023-04-18T08:27:29.761Z,102902.28
2023-04-18T08:30:30.680Z,102902.34
2023-04-18T08:33:31.735Z,102909.53
2023-04-18T08:36:32.714Z,102908.81
2023-04-18T08:39:33.717Z,102911.44
2023-04-18T08:42:35.688Z,102910.00
2023-04-18T08:45:39.465Z,102904.41
2023-04-18T08:48:40.646Z,102901.06
2023-04-18T08:51:42.744Z,102905.88
2023-04-18T08:54:44.692Z,102901.44
2023-04-18T08:57:46.751Z,102898.38
2023-04-18T09:00:47.668Z,102896.22
2023-04-18T09:03:49.768Z,102886.88
2023-04-18T09:07:05.708Z,102881.31
2023-04-18T09:10:06.719Z,102888.63
2023-04-18T09:13:07.677Z,102883.69
2023-04-18T09:16:08.747Z,102880.44
2023-04-18T09:19:28.650Z,102877.09
2023-04-18T09:22:29.759Z,102876.41
2023-04-18T09:25:48.672Z,102877.84
2023-04-18T09:28:50.823Z,102874.25
2023-04-18T09:32:09.664Z,102889.16
2023-04-18T09:35:11.706Z,102871.44
2023-04-18T09:38:12.675Z,102864.59
2023-04-18T09:41:23.764Z,102873.38
2023-04-18T09:44:24.677Z,102876.78
2023-04-18T09:47:25.755Z,102868.97
2023-04-18T09:50:27.712Z,102879.81
2023-04-18T09:53:32.001Z,102873.47
2023-04-18T09:56:38.655Z,102867.31
2023-04-18T09:59:50.819Z,102870.78
2023-04-18T10:03:00.725Z,102861.25
2023-04-18T10:06:01.706Z,102866.56
2023-04-18T10:08:57.780Z,102870.47
2023-04-18T10:11:51.726Z,102872.66
2023-04-18T10:14:55.668Z,102872.50
2023-04-18T10:18:08.717Z,102870.47
2023-04-18T10:21:15.680Z,102869.25
2023-04-18T10:24:16.704Z,102873.06
2023-04-18T10:27:17.710Z,102860.88
2023-04-18T10:30:18.783Z,102861.41
2023-04-18T10:33:42.720Z,102850.75
2023-04-18T10:36:43.689Z,102853.94
2023-04-18T10:39:44.673Z,102847.56
2023-04-18T10:43:08.689Z,102855.84
2023-04-18T10:46:31.889Z,102857.94
2023-04-18T10:49:39.688Z,102857.25
2023-04-18T10:52:40.653Z,102855.66
2023-04-18T10:55:44.680Z,102854.91
2023-04-18T10:58:45.643Z,102860.38
2023-04-18T11:01:49.735Z,102855.41
2023-04-18T11:04:50.630Z,102855.22
2023-04-18T11:07:57.708Z,102850.28
2023-04-18T11:11:06.969Z,102845.59
2023-04-18T11:14:04.806Z,102840.22
2023-04-18T11:17:05.637Z,102845.56
2023-04-18T11:20:19.750Z,102840.31
2023-04-18T11:23:30.667Z,102844.84
2023-04-18T11:26:31.723Z,102844.53
2023-04-18T11:29:32.662Z,102843.41
2023-04-18T11:32:35.833Z,102844.22
2023-04-18T11:35:36.652Z,102838.44
2023-04-18T11:38:41.725Z,102832.56
2023-04-18T11:41:42.638Z,102825.00
2023-04-18T11:44:46.679Z,102827.69
2023-04-18T11:47:48.672Z,102828.75
2023-04-18T11:50:49.687Z,102816.38
2023-04-18T11:53:51.630Z,102819.63
2023-04-18T11:57:00.666Z,102808.66
2023-04-18T12:00:04.632Z,102803.38
2023-04-18T12:03:05.949Z,102798.91
2023-04-18T12:06:12.809Z,102791.97
2023-04-18T12:09:13.682Z,102797.38
2023-04-18T12:12:07.729Z,102781.72
2023-04-18T12:15:07.861Z,102782.72
2023-04-18T12:18:15.674Z,102773.59
2023-04-18T12:21:18.667Z,102771.22
2023-04-18T12:24:30.673Z,102771.66
2023-04-18T12:27:31.680Z,102757.13
2023-04-18T12:30:33.382Z,102761.44
2023-04-18T12:33:34.957Z,102757.38
2023-04-18T12:36:35.632Z,102750.19
2023-04-18T12:39:36.699Z,102748.59
2023-04-18T12:42:37.629Z,102743.69
2023-04-18T12:45:38.681Z,102739.72
2023-04-18T12:48:39.622Z,102739.41
2023-04-18T12:51:40.756Z,102742.19
2023-04-18T12:54:41.636Z,102733.63
2023-04-18T12:57:44.707Z,102743.91
2023-04-18T13:00:46.699Z,102729.41
2023-04-18T13:03:56.506Z,102735.06
2023-04-18T13:07:04.630Z,102716.53
2023-04-18T13:10:05.683Z,102730.28
2023-04-18T13:12:59.781Z,102729.31
2023-04-18T13:15:53.672Z,102720.22
2023-04-18T13:18:54.634Z,102713.78
2023-04-18T13:21:55.660Z,102719.59
2023-04-18T13:24:56.636Z,102707.91
2023-04-18T13:27:57.667Z,102704.88
2023-04-18T13:30:58.661Z,102697.09
2023-04-18T13:33:59.823Z,102688.97
2023-04-18T13:37:00.650Z,102692.06
2023-04-18T13:40:01.659Z,102677.69
2023-04-18T13:43:02.646Z,102670.25
2023-04-18T13:46:03.696Z,102672.09
2023-04-18T13:49:04.675Z,102660.41
2023-04-18T13:52:05.684Z,102667.34
2023-04-18T13:55:06.635Z,102660.31
2023-04-18T13:58:09.628Z,102646.50
2023-04-18T14:01:10.642Z,102655.66
2023-04-18T14:04:11.835Z,102648.06
2023-04-18T14:07:15.611Z,102648.66
2023-04-18T14:10:16.681Z,102624.09
2023-04-18T14:13:17.609Z,102644.19
2023-04-18T14:16:19.803Z,102629.38
2023-04-18T14:19:20.621Z,102629.63
2023-04-18T14:22:21.728Z,102632.16
2023-04-18T14:25:23.604Z,102626.03
2023-04-18T14:28:25.672Z,102619.97
2023-04-18T14:31:26.665Z,102614.03
2023-04-18T14:34:27.830Z,102620.56
2023-04-18T14:37:28.612Z,102620.09
2023-04-18T14:40:32.080Z,102610.09
2023-04-18T14:43:33.635Z,102597.03
2023-04-18T14:46:34.673Z,102595.16
2023-04-18T14:49:35.638Z,102597.06
2023-04-18T14:52:36.710Z,102593.00
2023-04-18T14:55:37.619Z,102593.38
2023-04-18T14:58:39.650Z,102592.44
2023-04-18T15:01:40.670Z,102591.28
2023-04-18T15:04:41.787Z,102590.78
2023-04-18T15:07:44.630Z,102585.69
2023-04-18T15:10:45.645Z,102597.00
2023-04-18T15:13:46.625Z,102596.63
2023-04-18T15:16:47.718Z,102594.47
2023-04-18T15:19:48.648Z,102589.72
2023-04-18T15:22:49.652Z,102589.72
2023-04-18T15:25:50.595Z,102586.41
2023-04-18T15:28:51.643Z,102582.19
2023-04-18T15:31:53.704Z,102584.81
2023-04-18T15:34:54.816Z,102591.50
2023-04-18T15:37:55.598Z,102580.81
2023-04-18T15:40:56.653Z,102579.63
2023-04-18T15:43:57.620Z,102584.47
2023-04-18T15:46:58.700Z,102584.09
2023-04-18T15:49:59.630Z,102585.06
2023-04-18T15:53:00.776Z,102583.38
2023-04-18T15:56:01.605Z,102584.31
2023-04-18T15:59:02.690Z,102582.97
2023-04-18T16:02:03.655Z,102584.19
2023-04-18T16:05:04.627Z,102572.34
2023-04-18T16:08:05.614Z,102578.13
2023-04-18T16:11:06.631Z,102580.16
2023-04-18T16:14:08.678Z,102579.41
2023-04-18T16:17:09.662Z,102572.44
2023-04-18T16:20:10.631Z,102576.00
2023-04-18T16:23:11.656Z,102577.81
2023-04-18T16:26:12.618Z,102580.47
2023-04-18T16:29:13.654Z,102584.69
2023-04-18T16:32:14.640Z,102582.31
2023-04-18T16:35:17.003Z,102564.56
2023-04-18T16:38:17.625Z,102581.56
2023-04-18T16:41:18.649Z,102571.13
2023-04-18T16:44:19.625Z,102576.56
2023-04-18T16:47:20.779Z,102575.13
2023-04-18T16:50:21.598Z,102568.22
2023-04-18T16:53:22.670Z,102568.22
2023-04-18T16:56:23.623Z,102571.25
2023-04-18T16:59:24.662Z,102566.69
2023-04-18T17:02:25.737Z,102562.06
2023-04-18T17:05:26.672Z,102564.72
2023-04-18T17:08:27.607Z,102569.66
2023-04-18T17:11:28.648Z,102570.03
2023-04-18T17:14:29.606Z,102564.41
2023-04-18T17:17:30.776Z,102561.59
2023-04-18T17:20:31.611Z,102567.50
2023-04-18T17:23:33.201Z,102571.84
2023-04-18T17:26:34.639Z,102566.22
2023-04-18T17:29:35.725Z,102566.94
2023-04-18T17:32:36.647Z,102572.53
2023-04-18T17:35:37.713Z,102573.06
2023-04-18T17:38:38.613Z,102577.44
2023-04-18T17:41:39.584Z,102582.56
2023-04-18T17:44:40.595Z,102578.91
2023-04-18T17:47:41.643Z,102580.44
2023-04-18T17:50:44.615Z,102575.38
2023-04-18T17:53:45.652Z,102586.06
2023-04-18T17:56:46.613Z,102594.66
2023-04-18T17:59:47.652Z,102599.56
2023-04-18T18:02:49.816Z,102586.22
2023-04-18T18:05:50.633Z,102590.28
2023-04-18T18:08:51.591Z,102601.97
2023-04-18T18:11:55.363Z,102598.97
2023-04-18T18:14:56.577Z,102598.00
2023-04-18T18:17:57.679Z,102599.72
2023-04-18T18:20:58.609Z,102601.38
2023-04-18T18:23:59.666Z,102602.44
2023-04-18T18:27:00.622Z,102610.38
2023-04-18T18:30:01.768Z,102609.81
2023-04-18T18:33:02.637Z,102607.22
2023-04-18T18:36:03.720Z,102615.34
2023-04-18T18:39:04.603Z,102613.25
2023-04-18T18:42:05.641Z,102614.38
2023-04-18T18:45:07.617Z,102618.34
2023-04-18T18:48:10.709Z,102621.94
2023-04-18T18:51:11.608Z,102620.56
2023-04-18T18:54:12.626Z,102616.13
2023-04-18T18:57:13.600Z,102626.63
2023-04-18T19:00:17.631Z,102625.47
2023-04-18T19:03:18.816Z,102626.50
2023-04-18T19:06:19.605Z,102629.09
2023-04-18T19:09:20.578Z,102622.50
2023-04-18T19:12:21.643Z,102624.41
2023-04-18T19:15:22.597Z,102619.31
2023-04-18T19:18:24.621Z,102584.81
2023-04-18T19:21:26.590Z,102598.50
2023-04-18T19:24:27.622Z,102620.25
2023-04-18T19:27:28.600Z,102617.34
2023-04-18T19:30:29.626Z,102619.94
2023-04-18T19:33:31.606Z,102618.53
2023-04-18T19:36:32.844Z,102623.13
2023-04-18T19:39:33.572Z,102622.84
2023-04-18T19:42:34.604Z,102623.63
2023-04-18T19:45:35.600Z,102618.53
2023-04-18T19:48:36.614Z,102627.47
2023-04-18T19:51:37.574Z,102620.78
2023-04-18T19:54:39.631Z,102616.53
2023-04-18T19:57:42.566Z,102618.22
2023-04-18T20:00:43.628Z,102613.09
2023-04-18T20:03:44.721Z,102603.22
2023-04-18T20:06:45.616Z,102611.78
2023-04-18T20:09:46.585Z,102607.44
2023-04-18T20:12:49.500Z,102609.59
2023-04-18T20:15:50.611Z,102598.44
2023-04-18T20:18:55.065Z,102610.88
2023-04-18T20:21:48.882Z,102571.84
2023-04-18T20:24:42.603Z,102590.78
2023-04-18T20:27:43.591Z,102595.59
2023-04-18T20:30:44.689Z,102601.63
2023-04-18T20:33:45.563Z,102604.06
2023-04-18T20:36:47.795Z,102598.94
2023-04-18T20:39:48.563Z,102590.81
2023-04-18T20:42:49.598Z,102596.88
2023-04-18T20:45:50.643Z,102594.41
2023-04-18T20:48:51.616Z,102590.97
2023-04-18T20:51:52.592Z,102588.38
2023-04-18T20:54:53.608Z,102561.06
2023-04-18T20:57:54.535Z,102585.44
2023-04-18T21:00:55.651Z,102589.88
2023-04-18T21:03:56.647Z,102576.38
2023-04-18T21:06:57.617Z,102582.25
2023-04-18T21:09:58.542Z,102579.41
2023-04-18T21:12:59.628Z,102577.28
2023-04-18T21:16:00.612Z,102581.47
2023-04-18T21:19:01.620Z,102577.81
2023-04-18T21:22:02.571Z,102576.44
2023-04-18T21:25:03.644Z,102572.50
2023-04-18T21:28:04.576Z,102573.00
2023-04-18T21:31:05.649Z,102565.72
2023-04-18T21:34:07.560Z,102562.19
2023-04-18T21:37:08.823Z,102561.03
2023-04-18T21:40:09.551Z,102557.78
2023-04-18T21:43:10.568Z,102558.69
2023-04-18T21:46:11.591Z,102556.31
2023-04-18T21:49:12.586Z,102557.06
2023-04-18T21:52:14.567Z,102563.09
2023-04-18T21:55:15.599Z,102551.81
2023-04-18T21:58:16.591Z,102557.56
2023-04-18T22:01:17.673Z,102552.34
2023-04-18T22:04:18.889Z,102556.59
2023-04-18T22:07:19.595Z,102545.78
2023-04-18T22:10:20.602Z,102551.38
2023-04-18T22:13:21.589Z,102551.28
2023-04-18T22:16:22.643Z,102556.13
2023-04-18T22:19:23.599Z,102552.63
2023-04-18T22:22:24.544Z,102553.44
2023-04-18T22:25:25.653Z,102549.72
2023-04-18T22:28:26.558Z,102540.88
2023-04-18T22:31:27.717Z,102559.06
2023-04-18T22:34:28.567Z,102550.59
2023-04-18T22:37:29.788Z,102552.69
2023-04-18T22:40:30.526Z,102556.19
2023-04-18T22:43:31.612Z,102551.44
2023-04-18T22:46:32.583Z,102549.16
2023-04-18T22:49:34.595Z,102550.81
2023-04-18T22:52:36.558Z,102548.06
2023-04-18T22:55:37.602Z,102548.69
2023-04-18T22:58:38.560Z,102546.03
2023-04-18T23:01:39.638Z,102543.56
2023-04-18T23:04:40.729Z,102539.97
2023-04-18T23:07:41.589Z,102546.75
2023-04-18T23:10:42.597Z,102541.19
2023-04-18T23:13:43.598Z,102540.84
2023-04-18T23:16:44.580Z,102540.50
2023-04-18T23:19:45.603Z,102536.41
2023-04-18T23:22:46.583Z,102541.19
2023-04-18T23:25:47.579Z,102534.38
2023-04-18T23:28:48.634Z,102539.59
2023-04-18T23:31:49.715Z,102538.78
2023-04-18T23:34:50.569Z,102532.09
2023-04-18T23:37:51.818Z,102537.94
2023-04-18T23:40:52.528Z,102540.56
2023-04-18T23:43:53.612Z,102539.78
2023-04-18T23:46:54.603Z,102537.28
2023-04-18T23:49:55.602Z,102528.25
2023-04-18T23:52:56.538Z,102528.16
2023-04-18T23:55:57.596Z,102527.34
2023-04-18T23:58:58.563Z,102520.03
